TVS21D LKPR-LTAI
Flight info
| Callsign | TVS21D |
|---|---|
| Flight time | 2h 45m |
| Altitude | 37000 |
| Route | VOZ DCT PISAM DCT TEKNO DCT BABIT DCT BGD DCT NISVA DCT OTKOK DCT RODIP DCT BELGI UN131 KULAR UT39 NESIL |
| Aircraft | A320/M-SDE3FGHIRWY/LB1 |
Departure
| Time | 2026-05-04 10:00 |
|---|---|
| Airport | Václav Havel Airport Prague (LKPR) |
Arrival
| Time | 2026-05-04 12:45 |
|---|---|
| Airport | Antalya International Airport (LTAI) |
| Time | Latitude | Longitude | Altitude | Speed | Heading |
|---|---|---|---|---|---|
| 2026-05-04 09:42 | 50.10898 | 14.26643 | 1170 ft | 0 kts | 214° |
| 2026-05-04 09:49 | 50.10900 | 14.26645 | 1171 ft | 3 kts | 214° |
| 2026-05-04 09:51 | 50.10915 | 14.26727 | 1169 ft | 0 kts | 320° |
| 2026-05-04 09:52 | 50.10917 | 14.26725 | 1169 ft | 1 kts | 320° |
| 2026-05-04 09:52 | 50.10931 | 14.26706 | 1174 ft | 3 kts | 320° |
| 2026-05-04 09:53 | 50.10953 | 14.26680 | 1172 ft | 5 kts | 323° |
| 2026-05-04 09:53 | 50.11000 | 14.26633 | 1174 ft | 11 kts | 329° |
| 2026-05-04 09:53 | 50.11023 | 14.26610 | 1171 ft | 12 kts | 328° |
| 2026-05-04 09:53 | 50.10987 | 14.26451 | 1173 ft | 13 kts | 215° |
| 2026-05-04 09:54 | 50.10909 | 14.26367 | 1172 ft | 15 kts | 213° |
| 2026-05-04 09:54 | 50.10819 | 14.26272 | 1173 ft | 17 kts | 215° |
| 2026-05-04 09:54 | 50.10719 | 14.26165 | 1171 ft | 18 kts | 214° |
| 2026-05-04 09:54 | 50.10608 | 14.26051 | 1173 ft | 20 kts | 211° |
| 2026-05-04 09:55 | 50.10493 | 14.26005 | 1173 ft | 16 kts | 140° |
| 2026-05-04 09:55 | 50.10427 | 14.26127 | 1173 ft | 15 kts | 128° |
| 2026-05-04 09:55 | 50.10343 | 14.26298 | 1174 ft | 24 kts | 126° |
| 2026-05-04 09:55 | 50.10246 | 14.26500 | 1177 ft | 23 kts | 127° |
| 2026-05-04 09:56 | 50.10154 | 14.26691 | 1177 ft | 21 kts | 127° |
| 2026-05-04 09:56 | 50.10091 | 14.26820 | 1186 ft | 10 kts | 127° |
| 2026-05-04 09:56 | 50.10064 | 14.26873 | 1189 ft | 3 kts | 129° |
| 2026-05-04 09:56 | 50.10023 | 14.26960 | 1195 ft | 17 kts | 121° |
| 2026-05-04 09:57 | 50.09969 | 14.27073 | 1198 ft | 18 kts | 128° |
| 2026-05-04 09:57 | 50.09851 | 14.27310 | 1202 ft | 34 kts | 129° |
| 2026-05-04 09:57 | 50.09707 | 14.27537 | 1206 ft | 24 kts | 135° |
| 2026-05-04 09:57 | 50.09607 | 14.27624 | 1211 ft | 12 kts | 193° |
| 2026-05-04 09:58 | 50.09545 | 14.27574 | 1213 ft | 10 kts | 214° |
| 2026-05-04 09:58 | 50.09465 | 14.27484 | 1211 ft | 20 kts | 216° |
| 2026-05-04 09:58 | 50.09426 | 14.27379 | 1209 ft | 7 kts | 308° |
| 2026-05-04 10:00 | 50.13156 | 14.19739 | 3471 ft | 208 kts | 308° |
| 2026-05-04 10:00 | 50.14079 | 14.17824 | 3683 ft | 233 kts | 307° |
| 2026-05-04 10:02 | 50.16636 | 14.01221 | 8848 ft | 272 kts | 217° |
| 2026-05-04 10:04 | 50.03951 | 14.07419 | 11747 ft | 381 kts | 136° |
| 2026-05-04 10:04 | 50.02075 | 14.10463 | 11890 ft | 399 kts | 136° |
| 2026-05-04 10:04 | 50.00138 | 14.13611 | 12327 ft | 406 kts | 136° |
| 2026-05-04 10:04 | 49.98170 | 14.16793 | 12895 ft | 409 kts | 136° |
| 2026-05-04 10:05 | 49.96184 | 14.19985 | 13489 ft | 412 kts | 137° |
| 2026-05-04 10:05 | 49.94172 | 14.23191 | 14042 ft | 415 kts | 137° |
| 2026-05-04 10:05 | 49.92111 | 14.26349 | 14541 ft | 417 kts | 139° |
| 2026-05-04 10:05 | 49.90003 | 14.29459 | 15024 ft | 420 kts | 140° |
| 2026-05-04 10:06 | 49.87851 | 14.32558 | 15483 ft | 423 kts | 140° |
| 2026-05-04 10:06 | 49.85681 | 14.35662 | 15936 ft | 426 kts | 140° |
| 2026-05-04 10:06 | 49.83494 | 14.38789 | 16379 ft | 429 kts | 140° |
| 2026-05-04 10:08 | 49.70143 | 14.58111 | 18728 ft | 446 kts | 139° |
| 2026-05-04 10:08 | 49.67867 | 14.61395 | 19063 ft | 448 kts | 139° |
| 2026-05-04 10:08 | 49.65609 | 14.64642 | 19378 ft | 450 kts | 139° |
| 2026-05-04 10:08 | 49.63312 | 14.67938 | 19682 ft | 452 kts | 139° |
| 2026-05-04 10:09 | 49.61004 | 14.71248 | 19991 ft | 454 kts | 139° |
| 2026-05-04 10:09 | 49.58685 | 14.74569 | 20289 ft | 456 kts | 139° |
| 2026-05-04 10:09 | 49.56356 | 14.77904 | 20572 ft | 458 kts | 139° |
| 2026-05-04 10:09 | 49.54023 | 14.81248 | 20854 ft | 460 kts | 139° |
| 2026-05-04 10:10 | 49.51675 | 14.84608 | 21135 ft | 462 kts | 139° |
| 2026-05-04 10:10 | 49.49321 | 14.87971 | 21397 ft | 463 kts | 139° |
| 2026-05-04 10:10 | 49.46951 | 14.91352 | 21656 ft | 465 kts | 139° |
| 2026-05-04 10:10 | 49.44571 | 14.94737 | 21895 ft | 467 kts | 139° |
| 2026-05-04 10:11 | 49.42177 | 14.98134 | 22123 ft | 469 kts | 139° |
| 2026-05-04 10:11 | 49.39774 | 15.01537 | 22357 ft | 471 kts | 139° |
| 2026-05-04 10:11 | 49.37361 | 15.04954 | 22581 ft | 473 kts | 139° |
| 2026-05-04 10:11 | 49.34941 | 15.08381 | 22795 ft | 474 kts | 139° |
| 2026-05-04 10:12 | 49.32512 | 15.11815 | 23011 ft | 476 kts | 139° |
| 2026-05-04 10:12 | 49.30070 | 15.15259 | 23219 ft | 477 kts | 139° |
| 2026-05-04 10:12 | 49.27626 | 15.18702 | 23411 ft | 479 kts | 139° |
| 2026-05-04 10:12 | 49.25164 | 15.22167 | 23605 ft | 480 kts | 139° |
| 2026-05-04 10:13 | 49.22708 | 15.25622 | 23836 ft | 479 kts | 139° |
| 2026-05-04 10:13 | 49.20257 | 15.29065 | 24067 ft | 479 kts | 139° |
| 2026-05-04 10:13 | 49.17797 | 15.32512 | 24297 ft | 478 kts | 139° |
| 2026-05-04 10:13 | 49.15344 | 15.35938 | 24524 ft | 478 kts | 139° |
| 2026-05-04 10:14 | 49.12890 | 15.39354 | 24768 ft | 478 kts | 139° |
| 2026-05-04 10:14 | 49.10434 | 15.42773 | 25022 ft | 477 kts | 139° |
| 2026-05-04 10:16 | 48.93369 | 15.66452 | 26943 ft | 473 kts | 139° |
| 2026-05-04 10:16 | 48.90938 | 15.69804 | 27215 ft | 472 kts | 139° |
| 2026-05-04 10:16 | 48.88506 | 15.73156 | 27493 ft | 472 kts | 139° |
| 2026-05-04 10:16 | 48.86076 | 15.76503 | 27781 ft | 471 kts | 139° |
| 2026-05-04 10:17 | 48.83645 | 15.79844 | 28076 ft | 471 kts | 139° |
| 2026-05-04 10:17 | 48.81220 | 15.83172 | 28392 ft | 470 kts | 139° |
| 2026-05-04 10:19 | 48.64113 | 16.06148 | 30347 ft | 468 kts | 142° |
| 2026-05-04 10:19 | 48.61565 | 16.09216 | 30596 ft | 468 kts | 143° |
| 2026-05-04 10:19 | 48.59004 | 16.12247 | 30842 ft | 468 kts | 143° |
| 2026-05-04 10:19 | 48.56447 | 16.15272 | 31089 ft | 467 kts | 143° |
| 2026-05-04 10:20 | 48.54753 | 16.17285 | 31240 ft | 467 kts | 142° |
| 2026-05-04 10:20 | 48.52204 | 16.20339 | 31465 ft | 467 kts | 142° |
| 2026-05-04 10:20 | 48.49668 | 16.23409 | 31710 ft | 467 kts | 142° |
| 2026-05-04 10:20 | 48.47142 | 16.26487 | 31950 ft | 467 kts | 142° |
| 2026-05-04 10:21 | 48.44619 | 16.29564 | 32184 ft | 467 kts | 142° |
| 2026-05-04 10:21 | 48.42089 | 16.32642 | 32427 ft | 467 kts | 142° |
| 2026-05-04 10:21 | 48.39558 | 16.35711 | 32650 ft | 467 kts | 142° |
| 2026-05-04 10:21 | 48.37025 | 16.38766 | 32885 ft | 467 kts | 142° |
| 2026-05-04 10:22 | 48.31950 | 16.44850 | 33331 ft | 467 kts | 142° |
| 2026-05-04 10:22 | 48.29415 | 16.47883 | 33562 ft | 466 kts | 142° |
| 2026-05-04 10:22 | 48.26874 | 16.50924 | 33782 ft | 466 kts | 142° |
| 2026-05-04 10:23 | 48.24340 | 16.53959 | 34004 ft | 466 kts | 142° |
| 2026-05-04 10:23 | 48.21805 | 16.56990 | 34201 ft | 466 kts | 142° |
| 2026-05-04 10:25 | 48.04064 | 16.78080 | 35468 ft | 465 kts | 142° |
| 2026-05-04 10:25 | 48.01530 | 16.81077 | 35636 ft | 464 kts | 142° |
| 2026-05-04 10:25 | 47.98999 | 16.84069 | 35803 ft | 464 kts | 142° |
| 2026-05-04 10:25 | 47.96473 | 16.87054 | 35971 ft | 463 kts | 142° |
| 2026-05-04 10:26 | 47.93943 | 16.90042 | 36122 ft | 463 kts | 142° |
| 2026-05-04 10:26 | 47.91419 | 16.93017 | 36263 ft | 463 kts | 142° |
| 2026-05-04 10:26 | 47.88893 | 16.95988 | 36413 ft | 462 kts | 142° |
| 2026-05-04 10:26 | 47.86368 | 16.98950 | 36556 ft | 462 kts | 142° |
| 2026-05-04 10:27 | 47.83841 | 17.01904 | 36704 ft | 462 kts | 142° |
| 2026-05-04 10:27 | 47.81318 | 17.04852 | 36843 ft | 461 kts | 142° |
| 2026-05-04 10:27 | 47.78797 | 17.07799 | 37015 ft | 460 kts | 141° |
| 2026-05-04 10:28 | 47.73748 | 17.13695 | 37081 ft | 464 kts | 141° |
| 2026-05-04 10:28 | 47.68651 | 17.19634 | 37080 ft | 467 kts | 141° |
| 2026-05-04 10:29 | 47.63533 | 17.25570 | 37083 ft | 467 kts | 142° |
| 2026-05-04 10:29 | 47.58406 | 17.31499 | 37093 ft | 467 kts | 141° |
| 2026-05-04 10:30 | 47.53282 | 17.37423 | 37111 ft | 467 kts | 141° |
| 2026-05-04 10:30 | 47.48198 | 17.43284 | 37112 ft | 467 kts | 141° |
| 2026-05-04 10:31 | 47.43030 | 17.49223 | 37117 ft | 467 kts | 141° |
| 2026-05-04 10:32 | 47.25061 | 17.69767 | 37116 ft | 468 kts | 141° |
| 2026-05-04 10:33 | 47.19906 | 17.75615 | 37124 ft | 468 kts | 141° |
| 2026-05-04 10:33 | 47.14750 | 17.81459 | 37137 ft | 468 kts | 141° |
| 2026-05-04 10:34 | 47.09597 | 17.87296 | 37141 ft | 468 kts | 141° |
| 2026-05-04 10:34 | 47.04440 | 17.93105 | 37147 ft | 467 kts | 141° |
| 2026-05-04 10:35 | 46.99280 | 17.98903 | 37146 ft | 467 kts | 141° |
| 2026-05-04 10:35 | 46.94119 | 18.04692 | 37148 ft | 467 kts | 141° |
| 2026-05-04 10:36 | 46.88958 | 18.10479 | 37147 ft | 467 kts | 141° |
| 2026-05-04 10:36 | 46.83790 | 18.16252 | 37148 ft | 468 kts | 141° |
| 2026-05-04 10:37 | 46.78614 | 18.22015 | 37153 ft | 468 kts | 141° |
| 2026-05-04 10:37 | 46.73438 | 18.27767 | 37153 ft | 468 kts | 141° |
| 2026-05-04 10:39 | 46.55299 | 18.47812 | 37154 ft | 469 kts | 141° |
| 2026-05-04 10:40 | 46.50097 | 18.53539 | 37153 ft | 469 kts | 141° |
| 2026-05-04 10:40 | 46.44914 | 18.59261 | 37155 ft | 468 kts | 137° |
| 2026-05-04 10:41 | 46.40027 | 18.65495 | 37157 ft | 467 kts | 135° |
| 2026-05-04 10:41 | 46.35238 | 18.71848 | 37152 ft | 467 kts | 135° |
| 2026-05-04 10:42 | 46.30442 | 18.78191 | 37155 ft | 467 kts | 135° |
| 2026-05-04 10:42 | 46.25620 | 18.84495 | 37157 ft | 467 kts | 135° |
| 2026-05-04 10:43 | 46.20789 | 18.90767 | 37155 ft | 467 kts | 135° |
| 2026-05-04 10:45 | 46.01455 | 19.15754 | 37162 ft | 467 kts | 135° |
| 2026-05-04 10:45 | 45.96602 | 19.21987 | 37162 ft | 468 kts | 135° |
| 2026-05-04 10:46 | 45.91749 | 19.28206 | 37159 ft | 468 kts | 135° |
| 2026-05-04 10:46 | 45.86886 | 19.34419 | 37164 ft | 468 kts | 135° |
| 2026-05-04 10:47 | 45.82025 | 19.40624 | 37169 ft | 468 kts | 135° |
| 2026-05-04 10:47 | 45.77153 | 19.46827 | 37166 ft | 468 kts | 135° |
| 2026-05-04 10:49 | 45.57743 | 19.71374 | 37174 ft | 468 kts | 135° |
| 2026-05-04 10:50 | 45.52852 | 19.77525 | 37173 ft | 468 kts | 135° |
| 2026-05-04 10:52 | 45.33280 | 20.01960 | 37184 ft | 468 kts | 135° |
| 2026-05-04 10:52 | 45.28377 | 20.08054 | 37183 ft | 468 kts | 135° |
| 2026-05-04 10:54 | 45.08722 | 20.32312 | 37184 ft | 468 kts | 135° |
| 2026-05-04 10:56 | 44.89007 | 20.56422 | 37185 ft | 469 kts | 135° |
| 2026-05-04 10:57 | 44.84054 | 20.62440 | 37188 ft | 469 kts | 135° |
| 2026-05-04 10:57 | 44.79107 | 20.68441 | 37191 ft | 469 kts | 135° |
| 2026-05-04 10:58 | 44.74153 | 20.74436 | 37199 ft | 470 kts | 135° |
| 2026-05-04 10:58 | 44.69191 | 20.80431 | 37197 ft | 470 kts | 135° |
| 2026-05-04 10:59 | 44.64225 | 20.86415 | 37202 ft | 470 kts | 135° |
| 2026-05-04 10:59 | 44.59252 | 20.92380 | 37200 ft | 471 kts | 135° |
| 2026-05-04 11:00 | 44.54268 | 20.98354 | 37202 ft | 471 kts | 134° |
| 2026-05-04 11:02 | 44.34846 | 21.22766 | 37205 ft | 470 kts | 133° |
| 2026-05-04 11:05 | 43.98097 | 21.68274 | 37199 ft | 472 kts | 132° |
| 2026-05-04 11:06 | 43.93183 | 21.74325 | 37199 ft | 472 kts | 133° |
| 2026-05-04 11:06 | 43.88260 | 21.80366 | 37183 ft | 472 kts | 133° |
| 2026-05-04 11:10 | 43.54465 | 22.21391 | 37179 ft | 474 kts | 133° |
| 2026-05-04 11:12 | 43.34531 | 22.45283 | 37184 ft | 475 kts | 134° |
| 2026-05-04 11:12 | 43.29537 | 22.51234 | 37174 ft | 475 kts | 134° |
| 2026-05-04 11:13 | 43.24536 | 22.57184 | 37177 ft | 475 kts | 134° |
| 2026-05-04 11:13 | 43.19545 | 22.63118 | 37176 ft | 475 kts | 134° |
| 2026-05-04 11:14 | 43.18736 | 22.64077 | 37176 ft | 475 kts | 134° |
| 2026-05-04 11:16 | 42.94582 | 22.92546 | 37171 ft | 474 kts | 135° |
| 2026-05-04 11:16 | 42.89568 | 22.98418 | 37165 ft | 474 kts | 135° |
| 2026-05-04 11:17 | 42.84562 | 23.04266 | 37170 ft | 474 kts | 135° |
| 2026-05-04 11:19 | 42.64543 | 23.27533 | 37170 ft | 474 kts | 136° |
| 2026-05-04 11:19 | 42.59534 | 23.33327 | 37165 ft | 473 kts | 136° |
| 2026-05-04 11:20 | 42.54507 | 23.39125 | 37171 ft | 473 kts | 136° |
| 2026-05-04 11:20 | 42.49492 | 23.44900 | 37166 ft | 473 kts | 136° |
| 2026-05-04 11:22 | 42.29424 | 23.67859 | 37166 ft | 472 kts | 137° |
| 2026-05-04 11:23 | 42.24408 | 23.73576 | 37167 ft | 471 kts | 137° |
| 2026-05-04 11:25 | 42.06881 | 23.93424 | 37151 ft | 470 kts | 137° |
| 2026-05-04 11:25 | 42.01868 | 23.99074 | 37149 ft | 470 kts | 137° |
| 2026-05-04 11:27 | 41.79958 | 24.25269 | 37114 ft | 468 kts | 135° |
| 2026-05-04 11:28 | 41.75079 | 24.31067 | 37111 ft | 468 kts | 136° |
| 2026-05-04 11:28 | 41.70226 | 24.36825 | 37103 ft | 468 kts | 136° |
| 2026-05-04 11:29 | 41.65351 | 24.42619 | 37112 ft | 469 kts | 136° |
| 2026-05-04 11:29 | 41.60467 | 24.48416 | 37104 ft | 470 kts | 135° |
| 2026-05-04 11:33 | 41.27049 | 24.89780 | 37102 ft | 467 kts | 133° |
| 2026-05-04 11:33 | 41.22394 | 24.95826 | 37101 ft | 467 kts | 133° |
| 2026-05-04 11:34 | 41.20073 | 24.98823 | 36626 ft | 465 kts | 134° |
| 2026-05-04 11:34 | 41.17765 | 25.01803 | 35716 ft | 462 kts | 134° |
| 2026-05-04 11:34 | 41.15473 | 25.04761 | 35254 ft | 453 kts | 134° |
| 2026-05-04 11:34 | 41.13232 | 25.07656 | 35065 ft | 449 kts | 134° |
| 2026-05-04 11:35 | 41.08767 | 25.13424 | 35097 ft | 446 kts | 134° |
| 2026-05-04 11:35 | 41.04321 | 25.19166 | 35095 ft | 446 kts | 134° |
| 2026-05-04 11:36 | 40.99896 | 25.24864 | 35096 ft | 447 kts | 134° |
| 2026-05-04 11:36 | 40.95443 | 25.30594 | 35096 ft | 447 kts | 134° |
| 2026-05-04 11:37 | 40.90978 | 25.36321 | 35099 ft | 447 kts | 134° |
| 2026-05-04 11:37 | 40.86508 | 25.42031 | 35100 ft | 447 kts | 134° |
| 2026-05-04 11:38 | 40.82044 | 25.47731 | 35100 ft | 447 kts | 134° |
| 2026-05-04 11:38 | 40.77568 | 25.53435 | 35094 ft | 447 kts | 134° |
| 2026-05-04 11:39 | 40.73090 | 25.59130 | 35092 ft | 447 kts | 134° |
| 2026-05-04 11:41 | 40.57452 | 25.79001 | 35095 ft | 447 kts | 133° |
| 2026-05-04 11:41 | 40.53032 | 25.84759 | 35098 ft | 447 kts | 133° |
| 2026-05-04 11:42 | 40.48619 | 25.90517 | 35115 ft | 447 kts | 133° |
| 2026-05-04 11:42 | 40.44192 | 25.96260 | 35137 ft | 446 kts | 133° |
| 2026-05-04 11:43 | 40.39757 | 26.01993 | 35123 ft | 447 kts | 133° |
| 2026-05-04 11:43 | 40.35318 | 26.07722 | 35124 ft | 448 kts | 133° |
| 2026-05-04 11:44 | 40.30862 | 26.13445 | 35118 ft | 449 kts | 133° |
| 2026-05-04 11:44 | 40.26406 | 26.19167 | 35099 ft | 449 kts | 133° |
| 2026-05-04 11:45 | 40.21943 | 26.24895 | 35104 ft | 449 kts | 133° |
| 2026-05-04 11:45 | 40.17477 | 26.30615 | 35108 ft | 450 kts | 133° |
| 2026-05-04 11:46 | 40.13004 | 26.36335 | 35104 ft | 450 kts | 133° |
| 2026-05-04 11:46 | 40.08513 | 26.42051 | 35104 ft | 451 kts | 133° |
| 2026-05-04 11:47 | 40.04042 | 26.47732 | 35105 ft | 451 kts | 133° |
| 2026-05-04 11:47 | 39.99545 | 26.53457 | 35096 ft | 452 kts | 133° |
| 2026-05-04 11:48 | 39.95027 | 26.59185 | 35091 ft | 453 kts | 133° |
| 2026-05-04 11:48 | 39.90497 | 26.64909 | 35083 ft | 453 kts | 133° |
| 2026-05-04 11:49 | 39.85974 | 26.70628 | 35069 ft | 454 kts | 133° |
| 2026-05-04 11:49 | 39.81440 | 26.76342 | 35067 ft | 455 kts | 133° |
| 2026-05-04 11:50 | 39.76909 | 26.82045 | 35069 ft | 455 kts | 133° |
| 2026-05-04 11:50 | 39.72351 | 26.87773 | 35064 ft | 455 kts | 133° |
| 2026-05-04 11:51 | 39.67778 | 26.93498 | 35070 ft | 456 kts | 133° |
| 2026-05-04 11:51 | 39.63201 | 26.99210 | 35070 ft | 457 kts | 133° |
| 2026-05-04 11:52 | 39.58621 | 27.04916 | 35081 ft | 458 kts | 133° |
| 2026-05-04 11:52 | 39.54010 | 27.10661 | 35066 ft | 459 kts | 133° |
| 2026-05-04 11:53 | 39.49433 | 27.16365 | 35066 ft | 460 kts | 133° |
| 2026-05-04 11:53 | 39.44809 | 27.22114 | 35067 ft | 461 kts | 134° |
| 2026-05-04 11:55 | 39.26981 | 27.44128 | 35050 ft | 464 kts | 134° |
| 2026-05-04 11:56 | 39.22293 | 27.49889 | 35049 ft | 465 kts | 134° |
| 2026-05-04 11:56 | 39.17600 | 27.55650 | 35045 ft | 466 kts | 134° |
| 2026-05-04 11:57 | 39.12891 | 27.61424 | 35041 ft | 468 kts | 134° |
| 2026-05-04 11:57 | 39.08167 | 27.67193 | 35040 ft | 469 kts | 134° |
| 2026-05-04 11:58 | 39.03419 | 27.72975 | 35037 ft | 470 kts | 134° |
| 2026-05-04 11:58 | 38.98672 | 27.78762 | 35035 ft | 471 kts | 134° |
| 2026-05-04 11:59 | 38.93915 | 27.84552 | 35033 ft | 472 kts | 135° |
| 2026-05-04 11:59 | 38.89143 | 27.90344 | 35033 ft | 473 kts | 135° |
| 2026-05-04 12:00 | 38.84351 | 27.96134 | 35025 ft | 474 kts | 135° |
| 2026-05-04 12:00 | 38.79548 | 28.01940 | 35027 ft | 474 kts | 135° |
| 2026-05-04 12:01 | 38.74738 | 28.07742 | 35026 ft | 475 kts | 135° |
| 2026-05-04 12:02 | 38.57859 | 28.27996 | 35035 ft | 476 kts | 136° |
| 2026-05-04 12:03 | 38.53016 | 28.33782 | 35034 ft | 476 kts | 135° |
| 2026-05-04 12:03 | 38.48173 | 28.39563 | 35027 ft | 477 kts | 136° |
| 2026-05-04 12:04 | 38.43319 | 28.45340 | 35017 ft | 477 kts | 136° |
| 2026-05-04 12:04 | 38.38458 | 28.51123 | 35012 ft | 478 kts | 135° |
| 2026-05-04 12:05 | 38.33584 | 28.56914 | 35009 ft | 479 kts | 136° |
| 2026-05-04 12:05 | 38.28917 | 28.62936 | 35007 ft | 477 kts | 126° |
| 2026-05-04 12:06 | 38.24919 | 28.69631 | 34999 ft | 478 kts | 126° |
| 2026-05-04 12:06 | 38.20905 | 28.76379 | 34995 ft | 478 kts | 126° |
| 2026-05-04 12:07 | 38.16888 | 28.83123 | 34996 ft | 479 kts | 126° |
| 2026-05-04 12:07 | 38.12860 | 28.89864 | 34992 ft | 479 kts | 126° |
| 2026-05-04 12:08 | 38.08812 | 28.96611 | 34727 ft | 480 kts | 126° |
| 2026-05-04 12:08 | 38.06791 | 28.99976 | 34494 ft | 480 kts | 126° |
| 2026-05-04 12:08 | 38.04775 | 29.03333 | 34263 ft | 479 kts | 126° |
| 2026-05-04 12:09 | 38.02746 | 29.06701 | 34034 ft | 479 kts | 126° |
| 2026-05-04 12:09 | 38.00719 | 29.10056 | 33767 ft | 479 kts | 126° |
| 2026-05-04 12:09 | 37.98696 | 29.13406 | 33490 ft | 479 kts | 126° |
| 2026-05-04 12:09 | 37.96672 | 29.16758 | 33226 ft | 478 kts | 125° |
| 2026-05-04 12:10 | 37.94648 | 29.20106 | 32964 ft | 478 kts | 125° |
| 2026-05-04 12:10 | 37.92625 | 29.23451 | 32697 ft | 479 kts | 125° |
| 2026-05-04 12:10 | 37.90604 | 29.26792 | 32432 ft | 478 kts | 125° |
| 2026-05-04 12:10 | 37.88581 | 29.30136 | 32177 ft | 478 kts | 125° |
| 2026-05-04 12:11 | 37.86545 | 29.33494 | 31918 ft | 479 kts | 125° |
| 2026-05-04 12:11 | 37.84517 | 29.36831 | 31668 ft | 479 kts | 124° |
| 2026-05-04 12:11 | 37.82488 | 29.40165 | 31417 ft | 479 kts | 124° |
| 2026-05-04 12:11 | 37.80453 | 29.43504 | 31167 ft | 479 kts | 124° |
| 2026-05-04 12:12 | 37.78417 | 29.46844 | 30924 ft | 479 kts | 124° |
| 2026-05-04 12:12 | 37.76386 | 29.50174 | 30678 ft | 478 kts | 124° |
| 2026-05-04 12:12 | 37.74358 | 29.53494 | 30439 ft | 478 kts | 124° |
| 2026-05-04 12:12 | 37.72319 | 29.56828 | 30195 ft | 478 kts | 124° |
| 2026-05-04 12:13 | 37.70285 | 29.60146 | 29939 ft | 478 kts | 124° |
| 2026-05-04 12:14 | 37.55910 | 29.83548 | 27978 ft | 489 kts | 125° |
| 2026-05-04 12:15 | 37.53814 | 29.86935 | 27713 ft | 490 kts | 125° |
| 2026-05-04 12:15 | 37.51684 | 29.90376 | 27432 ft | 492 kts | 125° |
| 2026-05-04 12:15 | 37.49578 | 29.93780 | 27166 ft | 494 kts | 125° |
| 2026-05-04 12:15 | 37.47491 | 29.97156 | 26907 ft | 495 kts | 125° |
| 2026-05-04 12:16 | 37.45375 | 30.00581 | 26650 ft | 496 kts | 125° |
| 2026-05-04 12:16 | 37.43253 | 30.04014 | 26390 ft | 498 kts | 125° |
| 2026-05-04 12:16 | 37.41127 | 30.07452 | 25802 ft | 496 kts | 126° |
| 2026-05-04 12:16 | 37.39010 | 30.10869 | 24525 ft | 499 kts | 126° |
| 2026-05-04 12:17 | 37.36857 | 30.14335 | 23220 ft | 503 kts | 126° |
| 2026-05-04 12:17 | 37.34691 | 30.17814 | 21974 ft | 504 kts | 126° |
| 2026-05-04 12:17 | 37.32545 | 30.21249 | 21126 ft | 497 kts | 127° |
| 2026-05-04 12:17 | 37.30415 | 30.24657 | 20209 ft | 494 kts | 127° |
| 2026-05-04 12:18 | 37.28301 | 30.28038 | 19321 ft | 490 kts | 127° |
| 2026-05-04 12:18 | 37.26198 | 30.31398 | 18457 ft | 488 kts | 127° |
| 2026-05-04 12:18 | 37.24112 | 30.34729 | 17662 ft | 482 kts | 127° |
| 2026-05-04 12:18 | 37.22045 | 30.38029 | 16889 ft | 477 kts | 127° |
| 2026-05-04 12:19 | 37.20016 | 30.41266 | 16226 ft | 469 kts | 127° |
| 2026-05-04 12:19 | 37.18008 | 30.44466 | 15533 ft | 463 kts | 127° |
| 2026-05-04 12:19 | 37.16027 | 30.47616 | 14876 ft | 458 kts | 127° |
| 2026-05-04 12:19 | 37.14089 | 30.50692 | 14195 ft | 451 kts | 127° |
| 2026-05-04 12:20 | 37.12161 | 30.53752 | 13540 ft | 444 kts | 127° |
| 2026-05-04 12:20 | 37.10255 | 30.56775 | 12850 ft | 439 kts | 127° |
| 2026-05-04 12:20 | 37.08376 | 30.59755 | 12186 ft | 433 kts | 127° |
| 2026-05-04 12:20 | 37.06520 | 30.62676 | 11807 ft | 422 kts | 129° |
| 2026-05-04 12:21 | 37.04416 | 30.65130 | 11667 ft | 406 kts | 143° |
| 2026-05-04 12:21 | 37.01997 | 30.66842 | 11497 ft | 392 kts | 158° |
| 2026-05-04 12:21 | 36.99439 | 30.67773 | 11308 ft | 378 kts | 171° |
| 2026-05-04 12:21 | 36.96844 | 30.67979 | 11025 ft | 371 kts | 185° |
| 2026-05-04 12:22 | 36.94266 | 30.67751 | 10999 ft | 371 kts | 186° |
| 2026-05-04 12:22 | 36.91685 | 30.67527 | 11006 ft | 372 kts | 186° |
| 2026-05-04 12:22 | 36.89103 | 30.67314 | 11008 ft | 372 kts | 186° |
| 2026-05-04 12:22 | 36.86525 | 30.67105 | 11003 ft | 371 kts | 186° |
| 2026-05-04 12:23 | 36.83943 | 30.66895 | 10767 ft | 372 kts | 186° |
| 2026-05-04 12:23 | 36.81343 | 30.66680 | 10131 ft | 372 kts | 186° |
| 2026-05-04 12:23 | 36.78796 | 30.66471 | 9797 ft | 363 kts | 186° |
| 2026-05-04 12:23 | 36.76320 | 30.66269 | 9275 ft | 359 kts | 186° |
| 2026-05-04 12:24 | 36.73836 | 30.66066 | 8794 ft | 354 kts | 186° |
| 2026-05-04 12:24 | 36.71410 | 30.65867 | 8380 ft | 348 kts | 186° |
| 2026-05-04 12:24 | 36.69005 | 30.65667 | 7860 ft | 345 kts | 186° |
| 2026-05-04 12:24 | 36.66616 | 30.65497 | 7247 ft | 342 kts | 181° |
| 2026-05-04 12:25 | 36.64347 | 30.66140 | 6629 ft | 333 kts | 152° |
| 2026-05-04 12:25 | 36.62652 | 30.67983 | 6033 ft | 319 kts | 121° |
| 2026-05-04 12:25 | 36.61701 | 30.70397 | 5502 ft | 304 kts | 106° |
| 2026-05-04 12:25 | 36.61137 | 30.72860 | 5004 ft | 291 kts | 97° |
| 2026-05-04 12:26 | 36.61158 | 30.75276 | 4499 ft | 270 kts | 70° |
| 2026-05-04 12:26 | 36.61955 | 30.77258 | 3988 ft | 248 kts | 40° |
| 2026-05-04 12:26 | 36.63323 | 30.78366 | 3482 ft | 228 kts | 11° |
| 2026-05-04 12:26 | 36.64837 | 30.78622 | 3073 ft | 213 kts | 356° |
| 2026-05-04 12:27 | 36.66231 | 30.78362 | 2979 ft | 195 kts | 341° |
| 2026-05-04 12:27 | 36.67477 | 30.77880 | 2977 ft | 181 kts | 341° |
| 2026-05-04 12:27 | 36.68660 | 30.77423 | 2984 ft | 176 kts | 341° |
| 2026-05-04 12:27 | 36.69827 | 30.76970 | 2987 ft | 175 kts | 341° |
| 2026-05-04 12:28 | 36.71035 | 30.76777 | 2991 ft | 177 kts | 357° |
| 2026-05-04 12:28 | 36.72266 | 30.76870 | 2994 ft | 178 kts | 0° |
| 2026-05-04 12:28 | 36.73502 | 30.77016 | 2999 ft | 179 kts | 1° |
| 2026-05-04 12:28 | 36.74745 | 30.77179 | 2923 ft | 176 kts | 1° |
| 2026-05-04 12:29 | 36.75933 | 30.77341 | 2723 ft | 168 kts | 1° |
| 2026-05-04 12:29 | 36.77079 | 30.77497 | 2503 ft | 163 kts | 1° |
| 2026-05-04 12:29 | 36.78157 | 30.77646 | 2310 ft | 146 kts | 1° |
| 2026-05-04 12:29 | 36.79128 | 30.77779 | 2127 ft | 137 kts | 360° |
| 2026-05-04 12:30 | 36.80061 | 30.77905 | 1937 ft | 134 kts | 359° |
| 2026-05-04 12:30 | 36.80984 | 30.78030 | 1761 ft | 133 kts | 359° |
| 2026-05-04 12:30 | 36.81900 | 30.78155 | 1584 ft | 133 kts | 1° |
| 2026-05-04 12:30 | 36.82812 | 30.78279 | 1415 ft | 131 kts | 0° |
| 2026-05-04 12:31 | 36.83721 | 30.78403 | 1226 ft | 132 kts | 359° |
| 2026-05-04 12:31 | 36.84628 | 30.78530 | 1031 ft | 133 kts | 0° |
| 2026-05-04 12:31 | 36.85546 | 30.78661 | 791 ft | 132 kts | 358° |
| 2026-05-04 12:31 | 36.86463 | 30.78786 | 633 ft | 133 kts | 358° |
| 2026-05-04 12:32 | 36.87388 | 30.78916 | 443 ft | 135 kts | 356° |
| 2026-05-04 12:32 | 36.89186 | 30.79159 | 195 ft | 118 kts | 358° |
| 2026-05-04 12:32 | 36.90016 | 30.79272 | 439 ft | 129 kts | 357° |
| 2026-05-04 12:33 | 36.90964 | 30.79412 | 1234 ft | 141 kts | 1° |
| 2026-05-04 12:33 | 36.91955 | 30.79507 | 2090 ft | 146 kts | 355° |
| 2026-05-04 12:33 | 36.92993 | 30.79239 | 2521 ft | 162 kts | 339° |
| 2026-05-04 12:33 | 36.94131 | 30.78688 | 2851 ft | 189 kts | 336° |
| 2026-05-04 12:34 | 36.95221 | 30.77762 | 3539 ft | 199 kts | 309° |
| 2026-05-04 12:34 | 36.95699 | 30.76116 | 4377 ft | 212 kts | 276° |
| 2026-05-04 12:34 | 36.95365 | 30.74243 | 4869 ft | 230 kts | 251° |
| 2026-05-04 12:34 | 36.94612 | 30.72467 | 4981 ft | 232 kts | 246° |
| 2026-05-04 12:35 | 36.93641 | 30.70842 | 5002 ft | 240 kts | 224° |
| 2026-05-04 12:35 | 36.92117 | 30.69931 | 5005 ft | 248 kts | 200° |
| 2026-05-04 12:35 | 36.90425 | 30.69423 | 5009 ft | 251 kts | 196° |
| 2026-05-04 12:35 | 36.88718 | 30.68966 | 5010 ft | 251 kts | 196° |
| 2026-05-04 12:36 | 36.87005 | 30.68517 | 5007 ft | 251 kts | 196° |
| 2026-05-04 12:36 | 36.85304 | 30.68076 | 5006 ft | 250 kts | 196° |
| 2026-05-04 12:36 | 36.83589 | 30.67639 | 5004 ft | 251 kts | 196° |
| 2026-05-04 12:36 | 36.81884 | 30.67205 | 5003 ft | 251 kts | 195° |
| 2026-05-04 12:37 | 36.80171 | 30.66770 | 4998 ft | 251 kts | 195° |
| 2026-05-04 12:37 | 36.78453 | 30.66375 | 5003 ft | 251 kts | 192° |
| 2026-05-04 12:37 | 36.77310 | 30.66183 | 4916 ft | 250 kts | 191° |
| 2026-05-04 12:37 | 36.75581 | 30.65917 | 4571 ft | 250 kts | 191° |
| 2026-05-04 12:38 | 36.73856 | 30.65658 | 4241 ft | 249 kts | 191° |
| 2026-05-04 12:38 | 36.72123 | 30.65392 | 4002 ft | 247 kts | 190° |
| 2026-05-04 12:38 | 36.70408 | 30.65501 | 3786 ft | 250 kts | 162° |
| 2026-05-04 12:38 | 36.68934 | 30.66554 | 3445 ft | 249 kts | 140° |
| 2026-05-04 12:39 | 36.67621 | 30.67964 | 3084 ft | 249 kts | 132° |
| 2026-05-04 12:39 | 36.66771 | 30.69745 | 2993 ft | 237 kts | 97° |
| 2026-05-04 12:39 | 36.66813 | 30.71722 | 2992 ft | 225 kts | 63° |
| 2026-05-04 12:39 | 36.67632 | 30.73292 | 2992 ft | 214 kts | 39° |
| 2026-05-04 12:40 | 36.68689 | 30.74589 | 2990 ft | 212 kts | 36° |
| 2026-05-04 12:40 | 36.69734 | 30.75801 | 2988 ft | 197 kts | 32° |
| 2026-05-04 12:40 | 36.70879 | 30.76583 | 2988 ft | 182 kts | 9° |
| 2026-05-04 12:40 | 36.72108 | 30.76819 | 2995 ft | 178 kts | 1° |
| 2026-05-04 12:41 | 36.73342 | 30.76986 | 3000 ft | 178 kts | 1° |
| 2026-05-04 12:41 | 36.74523 | 30.77148 | 2962 ft | 164 kts | 1° |
| 2026-05-04 12:41 | 36.75635 | 30.77300 | 2771 ft | 157 kts | 1° |
| 2026-05-04 12:41 | 36.76705 | 30.77446 | 2576 ft | 152 kts | 1° |
| 2026-05-04 12:42 | 36.77703 | 30.77584 | 2402 ft | 139 kts | 0° |
| 2026-05-04 12:42 | 36.78630 | 30.77710 | 2217 ft | 134 kts | 359° |
| 2026-05-04 12:42 | 36.79565 | 30.77836 | 2034 ft | 133 kts | 359° |
| 2026-05-04 12:42 | 36.80469 | 30.77959 | 1860 ft | 132 kts | 360° |
| 2026-05-04 12:43 | 36.81380 | 30.78084 | 1693 ft | 131 kts | 0° |
| 2026-05-04 12:43 | 36.82286 | 30.78206 | 1512 ft | 131 kts | 0° |
| 2026-05-04 12:43 | 36.83191 | 30.78332 | 1331 ft | 131 kts | 0° |
| 2026-05-04 12:43 | 36.84093 | 30.78461 | 1146 ft | 131 kts | 360° |
| 2026-05-04 12:44 | 36.84997 | 30.78586 | 950 ft | 131 kts | 359° |
| 2026-05-04 12:44 | 36.85905 | 30.78709 | 774 ft | 131 kts | 358° |
| 2026-05-04 12:44 | 36.86806 | 30.78835 | 588 ft | 129 kts | 357° |
| 2026-05-04 12:44 | 36.87707 | 30.78957 | 381 ft | 131 kts | 358° |
| 2026-05-04 12:45 | 36.88604 | 30.79081 | 223 ft | 129 kts | 354° |
| 2026-05-04 12:45 | 36.89405 | 30.79180 | 190 ft | 94 kts | 6° |
| 2026-05-04 12:45 | 36.89895 | 30.79244 | 190 ft | 54 kts | 6° |
| 2026-05-04 12:45 | 36.90226 | 30.79305 | 190 ft | 44 kts | 14° |
| 2026-05-04 12:46 | 36.90410 | 30.79431 | 203 ft | 15 kts | 33° |
| 2026-05-04 12:46 | 36.90477 | 30.79493 | 199 ft | 8 kts | 51° |
| 2026-05-04 12:46 | 36.90478 | 30.79513 | 197 ft | 3 kts | 101° |
| 2026-05-04 12:46 | 36.90454 | 30.79542 | 195 ft | 7 kts | 154° |
| 2026-05-04 12:47 | 36.90385 | 30.79539 | 193 ft | 13 kts | 186° |
| 2026-05-04 12:47 | 36.90279 | 30.79525 | 204 ft | 17 kts | 187° |
| 2026-05-04 12:47 | 36.90168 | 30.79508 | 191 ft | 17 kts | 186° |
| 2026-05-04 12:47 | 36.90013 | 30.79486 | 191 ft | 25 kts | 186° |
| 2026-05-04 12:48 | 36.89839 | 30.79463 | 193 ft | 25 kts | 187° |
| 2026-05-04 12:48 | 36.89685 | 30.79453 | 195 ft | 17 kts | 152° |
| 2026-05-04 12:48 | 36.89655 | 30.79581 | 192 ft | 15 kts | 96° |
| 2026-05-04 12:48 | 36.89644 | 30.79711 | 192 ft | 17 kts | 96° |
| 2026-05-04 12:49 | 36.89635 | 30.79862 | 198 ft | 17 kts | 78° |
| 2026-05-04 12:49 | 36.89713 | 30.79918 | 197 ft | 10 kts | 33° |
| 2026-05-04 12:49 | 36.89740 | 30.79984 | 192 ft | 4 kts | 68° |
| 2026-05-04 12:49 | 36.89746 | 30.80003 | 194 ft | 0 kts | 69° |